Greenbush, Vermont
Current Conditions -  °F | °C
As of 12:54 PM on Tuesday 21 Oct 2014 (Local Time) from KVSF Reporting Station
Overcast Overcast  
Wind Chill: 48°   Ceiling: 1600
Heat Index: 48°   Visibility: 9mi
Dew Point: 45°   Wind: 3mph
Humidity: 89%   Direction: 360°N
Pressure: 29.98"   Gusts: NA
Location:  43.3938°N, 72.5025°W
Report Text: KVSF 211654Z AUTO 36003KT 9SM OVC016 09/07 A2998 RMK AO2 RAE49 SLP156 P0001 T00890072
Loading
Personal Weather Stations






























Interactive Weather Map
Tropical Storm Tracking
New forecast layout! Learn more

10-Day Weather Forecast

Advertisements
Track Severe Weather on mobile